Time;durP1;ratioP1;P1;durP2;ratioP2;P2;SDS_P1;SDS_P2;PMS_P1;PMS_P2;Temp;Humidity;BMP_temperature;BMP_pressure;BME280_temperature;BME280_humidity;BME280_pressure;Samples;Min_cycle;Max_cycle;Signal;HPM_P1;HPM_P2
2023/07/10 06:15:46;;;;;;;13.43;7.07;;;;;;;;;;5319061;23;20049;-76
2023/07/10 06:18:14;;;;;;;10.73;7.13;;;;;;;;;;5005761;28;20053;-77
2023/07/10 06:20:40;;;;;;;13.93;7.75;;;;;;;;;;4991824;28;20482;-76
2023/07/10 06:23:07;;;;;;;14.07;7.32;;;;;;;;;;5014647;28;20030;-77
2023/07/10 06:25:33;;;;;;;15.13;8.00;;;;;;;;;;5009016;28;20030;-77
2023/07/10 06:27:59;;;;;;;17.42;7.53;;;;;;;;;;4993510;28;20502;-77
2023/07/10 06:30:26;;;;;;;19.60;8.52;;;;;;;;;;4994598;28;20029;-77
2023/07/10 06:32:52;;;;;;;12.57;8.05;;;;;;;;;;4991789;28;20030;-77
2023/07/10 06:35:18;;;;;;;11.93;7.57;;;;;;;;;;4994325;28;20058;-77
2023/07/10 06:37:45;;;;;;;14.07;7.45;;;;;;;;;;4990849;28;20035;-77
2023/07/10 06:40:13;;;;;;;22.83;7.85;;;;;;;;;;4990750;28;20030;-77
2023/07/10 06:42:40;;;;;;;15.32;8.05;;;;;;;;;;4984932;28;20030;-77
2023/07/10 06:45:07;;;;;;;17.05;7.20;;;;;;;;;;4988018;28;20041;-77
2023/07/10 06:47:38;;;;;;;13.70;7.95;;;;;;;;;;4991377;28;20034;-78
2023/07/10 06:50:05;;;;;;;20.00;7.38;;;;;;;;;;4990350;28;20028;-76
2023/07/10 06:52:31;;;;;;;18.08;7.03;;;;;;;;;;5009369;28;20037;-77
2023/07/10 06:54:57;;;;;;;15.30;8.32;;;;;;;;;;4990348;28;20018;-77
2023/07/10 06:57:24;;;;;;;14.73;7.97;;;;;;;;;;4986212;28;20503;-76
2023/07/10 06:59:50;;;;;;;12.50;6.72;;;;;;;;;;4991937;28;20026;-77
2023/07/10 07:02:16;;;;;;;16.50;7.10;;;;;;;;;;4991760;28;20077;-78
2023/07/10 07:04:43;;;;;;;11.77;7.15;;;;;;;;;;4992538;28;20022;-77
2023/07/10 07:07:09;;;;;;;15.25;6.90;;;;;;;;;;4988269;28;20022;-78
2023/07/10 07:09:36;;;;;;;17.35;7.35;;;;;;;;;;4984180;28;20034;-78
2023/07/10 07:12:02;;;;;;;18.38;7.55;;;;;;;;;;4977159;28;20080;-79
2023/07/10 07:14:29;;;;;;;13.85;7.10;;;;;;;;;;4992293;28;20045;-78
2023/07/10 07:16:55;;;;;;;15.70;7.38;;;;;;;;;;4991977;28;20028;-77
2023/07/10 07:19:21;;;;;;;12.45;7.20;;;;;;;;;;4989136;28;20026;-77
2023/07/10 07:21:48;;;;;;;9.52;7.05;;;;;;;;;;4981466;28;20026;-78
2023/07/10 07:24:14;;;;;;;11.65;7.53;;;;;;;;;;4987553;28;20030;-78
2023/07/10 07:26:40;;;;;;;9.90;6.78;;;;;;;;;;4991750;28;20034;-77
2023/07/10 07:29:07;;;;;;;15.10;7.72;;;;;;;;;;4991997;28;20497;-78
2023/07/10 07:31:33;;;;;;;12.30;6.55;;;;;;;;;;4990883;28;20038;-78
2023/07/10 07:34:00;;;;;;;11.90;7.22;;;;;;;;;;4992809;28;20096;-78
2023/07/10 07:36:26;;;;;;;11.20;6.90;;;;;;;;;;4992410;28;20040;-76
2023/07/10 07:38:53;;;;;;;11.52;6.80;;;;;;;;;;4992275;28;20070;-76
2023/07/10 07:41:19;;;;;;;16.48;6.78;;;;;;;;;;4992105;28;20425;-71
2023/07/10 07:43:46;;;;;;;12.60;6.95;;;;;;;;;;4991412;28;20117;-81
2023/07/10 07:46:12;;;;;;;19.58;7.07;;;;;;;;;;4991172;28;20026;-76
2023/07/10 07:48:38;;;;;;;13.07;6.45;;;;;;;;;;4985105;28;20038;-77
2023/07/10 07:51:05;;;;;;;13.23;6.90;;;;;;;;;;4976184;28;20077;-78
2023/07/10 07:53:33;;;;;;;15.43;7.15;;;;;;;;;;4989608;28;20080;-75
2023/07/10 07:56:00;;;;;;;10.18;6.63;;;;;;;;;;4985043;28;20033;-76
2023/07/10 07:58:28;;;;;;;10.38;6.72;;;;;;;;;;4982741;28;20494;-79
2023/07/10 08:00:55;;;;;;;11.02;7.13;;;;;;;;;;4991635;28;20038;-75
2023/07/10 08:03:21;;;;;;;10.27;6.90;;;;;;;;;;4991143;28;20475;-74
2023/07/10 08:05:47;;;;;;;14.35;7.38;;;;;;;;;;4990045;28;20042;-76
2023/07/10 08:08:14;;;;;;;11.07;6.95;;;;;;;;;;4979878;28;20026;-75
2023/07/10 08:10:42;;;;;;;12.40;6.22;;;;;;;;;;4984165;28;20368;-73
2023/07/10 08:13:10;;;;;;;12.07;6.72;;;;;;;;;;4988592;28;20034;-76
2023/07/10 08:15:36;;;;;;;8.50;5.55;;;;;;;;;;4985326;28;20042;-76
2023/07/10 08:18:03;;;;;;;8.20;5.65;;;;;;;;;;4989546;28;20110;-75
2023/07/10 08:20:30;;;;;;;9.95;6.75;;;;;;;;;;4985972;28;20076;-74
2023/07/10 08:22:56;;;;;;;9.93;6.15;;;;;;;;;;4985812;28;20022;-75
2023/07/10 08:25:23;;;;;;;12.18;5.88;;;;;;;;;;4988130;28;20022;-73
2023/07/10 08:27:49;;;;;;;9.50;6.18;;;;;;;;;;4991590;28;20406;-75
2023/07/10 08:30:15;;;;;;;8.10;5.55;;;;;;;;;;4975608;28;20037;-74
2023/07/10 08:32:42;;;;;;;12.02;5.88;;;;;;;;;;4991869;28;20029;-74
2023/07/10 08:35:08;;;;;;;10.90;5.97;;;;;;;;;;4991623;28;20475;-73
2023/07/10 08:37:38;;;;;;;14.30;5.85;;;;;;;;;;4989874;28;20037;-77
2023/07/10 08:40:06;;;;;;;9.82;5.75;;;;;;;;;;4991507;28;20026;-74
2023/07/10 08:42:32;;;;;;;9.32;5.57;;;;;;;;;;4990591;28;20042;-75
2023/07/10 08:45:00;;;;;;;9.75;5.63;;;;;;;;;;4985048;28;20022;-72
2023/07/10 08:47:47;;;;;;;7.85;5.75;;;;;;;;;;4982123;28;20033;-74
2023/07/10 08:50:15;;;;;;;11.98;5.93;;;;;;;;;;4990104;28;20042;-78
2023/07/10 08:52:50;;;;;;;8.95;5.82;;;;;;;;;;4984425;28;20118;-76
2023/07/10 08:55:20;;;;;;;11.32;6.22;;;;;;;;;;4987411;28;20038;-74
2023/07/10 08:57:54;;;;;;;7.97;5.65;;;;;;;;;;4982508;28;20052;-77
2023/07/10 09:00:21;;;;;;;8.80;5.57;;;;;;;;;;4990462;28;20401;-82
2023/07/10 09:02:58;;;;;;;9.30;5.47;;;;;;;;;;4984977;28;20021;-74
2023/07/10 09:05:26;;;;;;;10.00;5.80;;;;;;;;;;4991220;28;20023;-77
2023/07/10 09:07:53;;;;;;;8.23;5.45;;;;;;;;;;4992831;28;20041;-85
2023/07/10 09:10:24;;;;;;;8.13;5.70;;;;;;;;;;4994719;28;20042;-80
2023/07/10 09:12:52;;;;;;;9.77;5.70;;;;;;;;;;4995081;28;20516;-78
2023/07/10 09:15:19;;;;;;;9.63;4.88;;;;;;;;;;4994949;28;20049;-82
2023/07/10 09:17:57;;;;;;;14.48;5.18;;;;;;;;;;4993910;28;20038;-79
2023/07/10 09:20:24;;;;;;;7.80;5.50;;;;;;;;;;4995871;28;20030;-70
2023/07/10 09:23:01;;;;;;;10.43;5.65;;;;;;;;;;4995646;28;20018;-69
2023/07/10 09:25:28;;;;;;;8.73;5.15;;;;;;;;;;4992884;28;20041;-69
2023/07/10 09:27:55;;;;;;;8.93;5.05;;;;;;;;;;4991959;28;20044;-68
2023/07/10 09:30:27;;;;;;;14.15;6.10;;;;;;;;;;4995510;28;20023;-68
2023/07/10 09:33:14;;;;;;;11.23;5.55;;;;;;;;;;4994661;28;20034;-69
2023/07/10 09:35:44;;;;;;;10.98;5.43;;;;;;;;;;4994672;28;20459;-70
2023/07/10 09:38:13;;;;;;;10.48;6.07;;;;;;;;;;4995013;28;20034;-69
2023/07/10 09:40:40;;;;;;;;;;;;;;;;;;4995596;28;20034;-68
2023/07/10 09:43:26;;;;;;;8.50;5.32;;;;;;;;;;4995055;28;19910;-67
2023/07/10 09:45:57;;;;;;;11.82;5.07;;;;;;;;;;4995078;28;20033;-70
2023/07/10 09:48:39;;;;;;;7.55;4.80;;;;;;;;;;4994346;28;20446;-71
2023/07/10 09:51:11;;;;;;;10.32;4.90;;;;;;;;;;4995150;28;20038;-67
2023/07/10 09:53:45;;;;;;;11.05;4.65;;;;;;;;;;4995611;28;20014;-70
2023/07/10 09:56:27;;;;;;;8.70;4.93;;;;;;;;;;4993361;28;20378;-67
2023/07/10 09:58:54;;;;;;;9.98;4.43;;;;;;;;;;4982550;28;20030;-70
2023/07/10 10:01:39;;;;;;;7.03;4.65;;;;;;;;;;4994464;28;20383;-78
2023/07/10 10:04:05;;;;;;;9.88;4.60;;;;;;;;;;4987522;28;20512;-73
2023/07/10 10:06:32;;;;;;;9.80;4.22;;;;;;;;;;4980258;28;20035;-77
2023/07/10 10:09:02;;;;;;;8.77;4.63;;;;;;;;;;4975561;28;20501;-77
2023/07/10 10:11:34;;;;;;;7.80;4.20;;;;;;;;;;4974175;28;20022;-77
2023/07/10 10:14:01;;;;;;;10.95;4.43;;;;;;;;;;4975346;28;20035;-77
2023/07/10 10:16:27;;;;;;;9.55;4.47;;;;;;;;;;4975490;28;20061;-78
2023/07/10 10:19:01;;;;;;;12.07;5.05;;;;;;;;;;4975046;28;20037;-78
2023/07/10 10:21:30;;;;;;;6.00;4.13;;;;;;;;;;4994789;28;20394;-78
2023/07/10 10:24:00;;;;;;;11.15;4.78;;;;;;;;;;4994406;28;20018;-78
2023/07/10 10:26:50;;;;;;;9.32;4.47;;;;;;;;;;4993766;28;20042;-78
2023/07/10 10:29:34;;;;;;;9.88;4.63;;;;;;;;;;4994589;28;20064;-78
2023/07/10 10:32:04;;;;;;;8.60;3.88;;;;;;;;;;4994639;28;20022;-78
2023/07/10 10:34:48;;;;;;;7.60;3.95;;;;;;;;;;4994723;28;20038;-78
2023/07/10 10:37:33;;;;;;;6.75;4.22;;;;;;;;;;4995011;28;20044;-78
2023/07/10 10:40:00;;;;;;;7.50;4.60;;;;;;;;;;4994399;28;20022;-78
2023/07/10 10:42:26;;;;;;;9.55;4.22;;;;;;;;;;4995326;28;20032;-78
2023/07/10 10:44:56;;;;;;;9.65;6.13;;;;;;;;;;4994767;28;20030;-78
2023/07/10 10:47:38;;;;;;;9.07;5.03;;;;;;;;;;4994486;28;20525;-79
2023/07/10 10:50:23;;;;;;;14.25;4.70;;;;;;;;;;4994852;28;20026;-76
2023/07/10 10:52:58;;;;;;;16.90;4.43;;;;;;;;;;4994186;28;20022;-78
2023/07/10 10:55:33;;;;;;;10.27;4.70;;;;;;;;;;4994700;28;20029;-78
2023/07/10 10:58:18;;;;;;;12.32;4.72;;;;;;;;;;4994398;28;20023;-78
2023/07/10 11:01:03;;;;;;;13.35;4.80;;;;;;;;;;4994428;28;20030;-79
2023/07/10 11:03:36;;;;;;;14.90;4.82;;;;;;;;;;4994375;28;20036;-78
2023/07/10 11:06:15;;;;;;;12.75;4.53;;;;;;;;;;4993180;28;20076;-78
2023/07/10 11:08:45;;;;;;;11.38;4.60;;;;;;;;;;4992545;28;20052;-78
2023/07/10 11:11:31;;;;;;;9.60;4.43;;;;;;;;;;4994279;28;20402;-78
2023/07/10 11:13:58;;;;;;;11.13;4.57;;;;;;;;;;4994219;28;20030;-78
2023/07/10 11:16:25;;;;;;;11.50;4.85;;;;;;;;;;4993881;28;20495;-77
2023/07/10 11:18:52;;;;;;;9.93;4.40;;;;;;;;;;4993714;28;20035;-78
2023/07/10 11:21:18;;;;;;;9.18;4.28;;;;;;;;;;4993931;28;20053;-78
2023/07/10 11:23:51;;;;;;;6.88;4.47;;;;;;;;;;4993933;28;20026;-77
2023/07/10 11:26:20;;;;;;;12.18;4.45;;;;;;;;;;4994209;28;20026;-78
2023/07/10 11:28:51;;;;;;;9.80;4.43;;;;;;;;;;4993525;28;20482;-78
2023/07/10 11:31:18;;;;;;;10.55;4.45;;;;;;;;;;4994405;28;20030;-78
2023/07/10 11:33:44;;;;;;;9.85;4.30;;;;;;;;;;4993646;28;20391;-78
2023/07/10 11:36:35;;;;;;;15.55;4.43;;;;;;;;;;4993874;28;20030;-78
2023/07/10 11:39:11;;;;;;;13.25;4.75;;;;;;;;;;4993796;28;20491;-78
2023/07/10 11:41:43;;;;;;;12.75;4.60;;;;;;;;;;4993513;28;20014;-78
2023/07/10 11:44:31;;;;;;;9.13;4.40;;;;;;;;;;4993766;28;20022;-79
2023/07/10 11:47:01;;;;;;;12.95;4.80;;;;;;;;;;4993456;28;20032;-78
2023/07/10 11:49:27;;;;;;;;;;;;;;;;;;4993640;28;20054;-78
2023/07/10 11:52:26;;;;;;;14.77;5.13;;;;;;;;;;4993236;28;19912;-78
2023/07/10 11:54:52;;;;;;;13.23;4.88;;;;;;;;;;4972149;28;20043;-78
2023/07/10 11:57:26;;;;;;;8.13;4.15;;;;;;;;;;4971860;28;21156;-79
2023/07/10 11:59:53;;;;;;;11.48;4.10;;;;;;;;;;4971982;28;20038;-78
2023/07/10 12:02:38;;;;;;;12.75;4.45;;;;;;;;;;4971553;28;20039;-79
2023/07/10 12:05:24;;;;;;;9.55;4.68;;;;;;;;;;4971575;28;20049;-76
2023/07/10 12:07:58;;;;;;;12.40;5.00;;;;;;;;;;4971671;28;20041;-79
2023/07/10 12:10:26;;;;;;;11.63;4.20;;;;;;;;;;4971412;28;20031;-79
2023/07/10 12:12:52;;;;;;;15.70;4.70;;;;;;;;;;4971464;28;20038;-78
2023/07/10 12:15:19;;;;;;;12.52;4.93;;;;;;;;;;4971339;28;20047;-78
2023/07/10 12:17:46;;;;;;;14.30;4.47;;;;;;;;;;4971582;28;20046;-79
2023/07/10 12:20:20;;;;;;;11.45;4.25;;;;;;;;;;4970826;28;20688;-79
2023/07/10 12:22:46;;;;;;;10.07;4.50;;;;;;;;;;4971357;28;20029;-79
2023/07/10 12:25:14;;;;;;;13.20;4.60;;;;;;;;;;4971506;28;20085;-78
2023/07/10 12:27:41;;;;;;;12.07;4.25;;;;;;;;;;4971292;28;20086;-79
2023/07/10 12:30:18;;;;;;;12.10;4.22;;;;;;;;;;4964024;28;20049;-82
2023/07/10 12:32:45;;;;;;;11.43;4.03;;;;;;;;;;4985458;28;20026;-75
2023/07/10 12:35:24;;;;;;;10.85;3.95;;;;;;;;;;4988679;28;20026;-82
2023/07/10 12:37:50;;;;;;;9.97;4.40;;;;;;;;;;4982258;28;20100;-77
2023/07/10 12:40:17;;;;;;;13.40;4.32;;;;;;;;;;4982417;28;20517;-83
2023/07/10 12:42:44;;;;;;;9.50;3.78;;;;;;;;;;4976018;28;20425;-80
2023/07/10 12:45:17;;;;;;;6.15;3.60;;;;;;;;;;4987794;28;20033;-79
2023/07/10 12:47:48;;;;;;;11.88;3.90;;;;;;;;;;5006589;28;20034;-79
2023/07/10 12:50:14;;;;;;;10.00;3.50;;;;;;;;;;4990971;28;20038;-78
2023/07/10 12:52:40;;;;;;;10.10;4.07;;;;;;;;;;4989857;28;20029;-76
2023/07/10 12:55:15;;;;;;;13.60;3.95;;;;;;;;;;4991139;28;20026;-75
2023/07/10 12:57:41;;;;;;;10.80;4.32;;;;;;;;;;4971861;28;20027;-76
2023/07/10 13:00:09;;;;;;;8.27;4.00;;;;;;;;;;4983984;28;20036;-78
2023/07/10 13:02:45;;;;;;;9.07;3.85;;;;;;;;;;4990806;28;20483;-75
2023/07/10 13:05:19;;;;;;;12.40;4.55;;;;;;;;;;4990972;28;20022;-77
2023/07/10 13:07:49;;;;;;;6.93;3.70;;;;;;;;;;4990940;28;20036;-82
2023/07/10 13:10:25;;;;;;;8.68;4.28;;;;;;;;;;4990049;28;20108;-80
2023/07/10 13:12:53;;;;;;;9.48;3.97;;;;;;;;;;4990683;28;20022;-77
2023/07/10 13:15:20;;;;;;;8.45;4.00;;;;;;;;;;4991232;28;20080;-77
2023/07/10 13:17:48;;;;;;;7.78;4.00;;;;;;;;;;4990430;28;20034;-79
2023/07/10 13:20:19;;;;;;;10.75;4.15;;;;;;;;;;4985815;28;20030;-75
2023/07/10 13:22:46;;;;;;;9.55;4.03;;;;;;;;;;4989841;28;20479;-75
2023/07/10 13:25:12;;;;;;;7.57;4.05;;;;;;;;;;4990575;28;20027;-76
2023/07/10 13:27:40;;;;;;;12.38;3.95;;;;;;;;;;4990894;28;20352;-77
2023/07/10 13:30:15;;;;;;;10.98;4.15;;;;;;;;;;4984185;28;20030;-76
2023/07/10 13:32:41;;;;;;;9.85;3.92;;;;;;;;;;4987960;28;20031;-76
2023/07/10 13:35:09;;;;;;;11.68;4.20;;;;;;;;;;4991363;28;20032;-86
2023/07/10 13:37:35;;;;;;;7.32;4.07;;;;;;;;;;4991952;28;20041;-80
2023/07/10 13:40:03;;;;;;;10.57;3.90;;;;;;;;;;4992012;28;20146;-79
2023/07/10 13:42:30;;;;;;;15.93;3.70;;;;;;;;;;4990837;28;20157;-77
2023/07/10 13:44:56;;;;;;;9.85;3.85;;;;;;;;;;4990964;28;20023;-76
2023/07/10 13:47:26;;;;;;;10.70;4.28;;;;;;;;;;4990747;28;20509;-77
2023/07/10 13:49:53;;;;;;;9.88;3.53;;;;;;;;;;4992091;28;20052;-80
2023/07/10 13:52:21;;;;;;;11.25;3.60;;;;;;;;;;4980500;28;20037;-81
2023/07/10 13:54:48;;;;;;;13.48;3.83;;;;;;;;;;4975051;28;20607;-79
2023/07/10 13:57:34;;;;;;;12.23;3.85;;;;;;;;;;4994541;28;20023;-77
2023/07/10 14:00:01;;;;;;;12.88;3.70;;;;;;;;;;4994322;28;20038;-80
2023/07/10 14:02:34;;;;;;;9.00;3.72;;;;;;;;;;4995203;28;20034;-78
2023/07/10 14:05:03;;;;;;;11.65;4.03;;;;;;;;;;4995641;28;20041;-76
2023/07/10 14:07:30;;;;;;;8.93;4.07;;;;;;;;;;4994662;28;20030;-75
2023/07/10 14:10:00;;;;;;;8.63;3.97;;;;;;;;;;4993647;28;20269;-76
2023/07/10 14:12:27;;;;;;;14.43;4.53;;;;;;;;;;4995393;28;20041;-79
2023/07/10 14:14:53;;;;;;;15.70;4.28;;;;;;;;;;4995017;28;20070;-80
2023/07/10 14:17:22;;;;;;;12.57;4.22;;;;;;;;;;4994262;28;20030;-74
2023/07/10 14:19:49;;;;;;;9.32;4.30;;;;;;;;;;4993692;28;20030;-76
2023/07/10 14:22:16;;;;;;;10.43;4.07;;;;;;;;;;4993578;28;20586;-80
2023/07/10 14:24:43;;;;;;;8.63;4.20;;;;;;;;;;4992418;28;20129;-75
2023/07/10 14:27:16;;;;;;;11.32;4.35;;;;;;;;;;4994463;28;20376;-79
2023/07/10 14:29:43;;;;;;;9.57;4.25;;;;;;;;;;4994480;28;20036;-76
2023/07/10 14:32:16;;;;;;;11.65;4.10;;;;;;;;;;4990859;28;20024;-77
2023/07/10 14:34:42;;;;;;;7.15;4.03;;;;;;;;;;4994599;28;20045;-79
2023/07/10 14:37:13;;;;;;;14.38;4.03;;;;;;;;;;4994333;28;20471;-78
2023/07/10 14:39:39;;;;;;;15.50;4.43;;;;;;;;;;4992601;28;20402;-79
2023/07/10 14:42:16;;;;;;;11.43;4.10;;;;;;;;;;4993692;28;20025;-86
2023/07/10 14:44:42;;;;;;;13.20;4.05;;;;;;;;;;4994039;28;20031;-78
2023/07/10 14:47:19;;;;;;;10.05;4.30;;;;;;;;;;4993836;28;20054;-75
2023/07/10 14:49:46;;;;;;;10.18;4.00;;;;;;;;;;4988220;28;20430;-79
2023/07/10 14:52:17;;;;;;;11.40;3.58;;;;;;;;;;4991306;28;20034;-76
2023/07/10 14:54:44;;;;;;;10.70;3.97;;;;;;;;;;4991886;28;20034;-75
2023/07/10 14:57:18;;;;;;;11.57;3.90;;;;;;;;;;4988604;28;20022;-78
2023/07/10 14:59:44;;;;;;;12.30;3.95;;;;;;;;;;4984042;28;20036;-78
2023/07/10 15:02:17;;;;;;;8.02;3.72;;;;;;;;;;4984459;28;20027;-79
2023/07/10 15:04:44;;;;;;;10.15;4.28;;;;;;;;;;4987370;28;20022;-80
2023/07/10 15:07:12;;;;;;;11.38;4.15;;;;;;;;;;4987493;28;20023;-80
2023/07/10 15:09:48;;;;;;;13.90;4.13;;;;;;;;;;4987170;28;20422;-79
2023/07/10 15:12:16;;;;;;;16.55;4.32;;;;;;;;;;4986919;28;20026;-80
2023/07/10 15:14:43;;;;;;;13.52;4.53;;;;;;;;;;4985464;28;20050;-81
2023/07/10 15:17:17;;;;;;;12.27;4.53;;;;;;;;;;4990563;28;20426;-80
2023/07/10 15:19:44;;;;;;;14.60;5.00;;;;;;;;;;4985939;28;20044;-80
2023/07/10 15:22:14;;;;;;;15.75;4.90;;;;;;;;;;4990555;28;20036;-80
2023/07/10 15:24:41;;;;;;;11.60;4.20;;;;;;;;;;4985331;28;20022;-80
2023/07/10 15:27:07;;;;;;;15.63;4.65;;;;;;;;;;4989065;28;20034;-80
2023/07/10 15:29:33;;;;;;;19.55;4.45;;;;;;;;;;4987130;28;20034;-78
2023/07/10 15:32:09;;;;;;;15.35;4.70;;;;;;;;;;4989120;28;20033;-78
2023/07/10 15:34:36;;;;;;;13.93;4.40;;;;;;;;;;4992599;28;20026;-78
2023/07/10 15:37:02;;;;;;;17.55;4.25;;;;;;;;;;4993073;28;20026;-78
2023/07/10 15:39:29;;;;;;;17.02;5.03;;;;;;;;;;4973758;28;20077;-80
2023/07/10 15:41:55;;;;;;;17.17;4.65;;;;;;;;;;4981640;28;20032;-80
2023/07/10 15:44:22;;;;;;;17.45;4.57;;;;;;;;;;4993214;28;20442;-78
2023/07/10 15:46:48;;;;;;;17.95;4.72;;;;;;;;;;4993764;28;20040;-78
2023/07/10 15:49:24;;;;;;;14.55;4.45;;;;;;;;;;4992693;28;20040;-78
2023/07/10 15:51:52;;;;;;;15.10;4.68;;;;;;;;;;4993479;28;20030;-78
2023/07/10 15:54:18;;;;;;;18.15;4.30;;;;;;;;;;4993609;28;20479;-75
2023/07/10 15:56:45;;;;;;;15.00;5.03;;;;;;;;;;4993338;28;20032;-76
2023/07/10 15:59:18;;;;;;;12.60;4.47;;;;;;;;;;4992839;28;20031;-75
2023/07/10 16:01:47;;;;;;;12.07;4.53;;;;;;;;;;4993271;28;20022;-75
2023/07/10 16:04:18;;;;;;;21.00;5.25;;;;;;;;;;4992743;28;20487;-75
2023/07/10 16:06:44;;;;;;;22.70;4.95;;;;;;;;;;4993208;28;20032;-76
2023/07/10 16:09:11;;;;;;;17.05;4.93;;;;;;;;;;4993116;28;20049;-75
2023/07/10 16:11:38;;;;;;;19.83;5.15;;;;;;;;;;4993488;28;20030;-79
2023/07/10 16:14:09;;;;;;;17.08;5.18;;;;;;;;;;4992623;28;20036;-79
2023/07/10 16:16:35;;;;;;;22.30;4.90;;;;;;;;;;4992910;28;20044;-75
2023/07/10 16:19:02;;;;;;;20.50;5.00;;;;;;;;;;4992578;28;20040;-75
2023/07/10 16:21:29;;;;;;;13.23;4.22;;;;;;;;;;4992930;28;20491;-75
2023/07/10 16:23:55;;;;;;;14.98;4.43;;;;;;;;;;4992935;28;20471;-75
2023/07/10 16:26:22;;;;;;;13.13;4.28;;;;;;;;;;5007660;28;20027;-74
2023/07/10 16:28:48;;;;;;;17.13;4.85;;;;;;;;;;4992820;28;20445;-81
2023/07/10 16:31:20;;;;;;;17.58;5.00;;;;;;;;;;4992920;28;20024;-77
2023/07/10 16:33:46;;;;;;;21.27;4.78;;;;;;;;;;4992818;28;20044;-76
2023/07/10 16:36:17;;;;;;;23.85;4.45;;;;;;;;;;4992950;28;20368;-75
2023/07/10 16:38:44;;;;;;;14.93;5.03;;;;;;;;;;4993021;28;20038;-74
2023/07/10 16:41:15;;;;;;;20.85;5.30;;;;;;;;;;4992580;28;20029;-74
2023/07/10 16:43:41;;;;;;;20.70;4.40;;;;;;;;;;4992696;28;20036;-74
2023/07/10 16:46:08;;;;;;;26.45;4.93;;;;;;;;;;4992695;28;20030;-75
2023/07/10 16:48:35;;;;;;;22.58;4.90;;;;;;;;;;4992630;28;20410;-70
2023/07/10 16:51:02;;;;;;;23.42;4.68;;;;;;;;;;4992980;28;20029;-73
2023/07/10 16:53:41;;;;;;;33.00;5.22;;;;;;;;;;4992587;28;20442;-73
2023/07/10 16:56:10;;;;;;;28.73;5.53;;;;;;;;;;4992246;28;20026;-75
2023/07/10 16:58:37;;;;;;;28.40;5.10;;;;;;;;;;4992567;28;20501;-77
2023/07/10 17:01:14;;;;;;;15.55;4.70;;;;;;;;;;4992540;28;20041;-75
2023/07/10 17:03:40;;;;;;;15.40;4.72;;;;;;;;;;4992757;28;20023;-75
2023/07/10 17:06:09;;;;;;;18.55;4.47;;;;;;;;;;4992602;28;20036;-74
2023/07/10 17:08:36;;;;;;;16.00;4.78;;;;;;;;;;4992450;28;20033;-78
2023/07/10 17:11:02;;;;;;;19.85;4.90;;;;;;;;;;4992255;28;20065;-73
2023/07/10 17:13:30;;;;;;;24.50;5.15;;;;;;;;;;4992647;28;20022;-78
2023/07/10 17:15:57;;;;;;;28.10;5.40;;;;;;;;;;4992316;28;20042;-74
2023/07/10 17:18:24;;;;;;;19.63;5.13;;;;;;;;;;4992769;28;20033;-72
2023/07/10 17:20:52;;;;;;;21.98;5.35;;;;;;;;;;4992225;28;20038;-76
2023/07/10 17:23:19;;;;;;;24.42;4.90;;;;;;;;;;4992245;28;20525;-75
2023/07/10 17:25:46;;;;;;;17.15;5.13;;;;;;;;;;4992401;28;20085;-78
2023/07/10 17:28:16;;;;;;;15.48;4.57;;;;;;;;;;4992564;28;20421;-75
2023/07/10 17:30:42;;;;;;;13.40;4.60;;;;;;;;;;4996185;28;20487;-80
2023/07/10 17:33:35;;;;;;;24.98;4.80;;;;;;;;;;4996278;28;20034;-73
2023/07/10 17:36:02;;;;;;;23.63;5.60;;;;;;;;;;4994987;28;20038;-73
2023/07/10 17:38:30;;;;;;;26.40;5.10;;;;;;;;;;4994818;28;20065;-79
2023/07/10 17:40:57;;;;;;;21.13;4.65;;;;;;;;;;4995949;28;20038;-72
2023/07/10 17:43:24;;;;;;;26.92;5.28;;;;;;;;;;4995751;28;20018;-72
2023/07/10 17:45:50;;;;;;;21.85;5.60;;;;;;;;;;4996067;28;20030;-72
2023/07/10 17:48:20;;;;;;;21.83;5.05;;;;;;;;;;4995736;28;20549;-74
2023/07/10 17:50:47;;;;;;;20.55;5.95;;;;;;;;;;4995730;28;20049;-75
2023/07/10 17:53:14;;;;;;;22.88;5.47;;;;;;;;;;4995374;28;20041;-74
2023/07/10 17:55:40;;;;;;;28.98;5.10;;;;;;;;;;4995771;28;20029;-75
2023/07/10 17:58:17;;;;;;;17.35;5.13;;;;;;;;;;4995667;28;20038;-78
2023/07/10 18:00:45;;;;;;;15.95;4.80;;;;;;;;;;4995546;28;20030;-72
2023/07/10 18:03:16;;;;;;;17.75;4.32;;;;;;;;;;4995580;28;20022;-72
2023/07/10 18:05:43;;;;;;;15.68;4.38;;;;;;;;;;4995518;28;20054;-71
2023/07/10 18:08:14;;;;;;;21.13;5.18;;;;;;;;;;4995132;28;20057;-72
2023/07/10 18:10:41;;;;;;;23.52;5.10;;;;;;;;;;4995352;28;20022;-71
2023/07/10 18:13:26;;;;;;;26.45;5.28;;;;;;;;;;4995622;28;20029;-72
2023/07/10 18:15:52;;;;;;;20.35;5.18;;;;;;;;;;4995094;28;20507;-72
2023/07/10 18:18:18;;;;;;;20.13;4.68;;;;;;;;;;4995157;28;20034;-77
2023/07/10 18:20:45;;;;;;;20.38;5.10;;;;;;;;;;4995396;28;20040;-76
2023/07/10 18:23:21;;;;;;;23.85;5.45;;;;;;;;;;4993694;28;20026;-75
2023/07/10 18:25:51;;;;;;;25.00;5.22;;;;;;;;;;4995174;28;20030;-75
2023/07/10 18:28:18;;;;;;;18.65;5.18;;;;;;;;;;4995101;28;20019;-76
2023/07/10 18:30:45;;;;;;;15.75;5.15;;;;;;;;;;4994878;28;20034;-75
2023/07/10 18:33:12;;;;;;;21.98;4.53;;;;;;;;;;4995333;28;20026;-75
2023/07/10 18:35:38;;;;;;;19.02;5.45;;;;;;;;;;4994861;28;20394;-75
2023/07/10 18:38:10;;;;;;;20.17;5.65;;;;;;;;;;4994527;28;20475;-75
2023/07/10 18:40:37;;;;;;;23.80;5.80;;;;;;;;;;4994030;28;20040;-75
2023/07/10 18:43:03;;;;;;;19.77;6.07;;;;;;;;;;4994889;28;20032;-75
2023/07/10 18:45:29;;;;;;;15.00;4.80;;;;;;;;;;4994684;28;20023;-75
2023/07/10 18:47:56;;;;;;;17.60;5.50;;;;;;;;;;4994693;28;20023;-75
2023/07/10 18:50:22;;;;;;;24.95;5.18;;;;;;;;;;4995029;28;20095;-75
2023/07/10 18:52:48;;;;;;;20.58;5.78;;;;;;;;;;4994291;28;20475;-75
2023/07/10 18:55:19;;;;;;;24.48;6.20;;;;;;;;;;4994673;28;20034;-75
2023/07/10 18:57:46;;;;;;;15.32;5.38;;;;;;;;;;4994668;28;20505;-75
2023/07/10 19:00:22;;;;;;;37.45;14.77;;;;;;;;;;4994785;28;20044;-75
2023/07/10 19:02:49;;;;;;;22.63;5.82;;;;;;;;;;4994640;28;20031;-75
2023/07/10 19:05:15;;;;;;;17.08;5.63;;;;;;;;;;4994401;28;20019;-76
2023/07/10 19:07:42;;;;;;;20.95;5.55;;;;;;;;;;4994082;28;20398;-75
2023/07/10 19:10:15;;;;;;;32.10;13.63;;;;;;;;;;5009395;28;20038;-75
2023/07/10 19:12:42;;;;;;;27.70;7.57;;;;;;;;;;4994275;28;20523;-75
2023/07/10 19:15:09;;;;;;;18.67;5.38;;;;;;;;;;4992874;28;20511;-75
2023/07/10 19:17:37;;;;;;;23.38;5.22;;;;;;;;;;4994131;28;20064;-75
2023/07/10 19:20:04;;;;;;;20.20;5.10;;;;;;;;;;4994075;28;20018;-75
2023/07/10 19:22:31;;;;;;;22.63;5.65;;;;;;;;;;4993842;28;20044;-72
2023/07/10 19:25:00;;;;;;;21.95;5.80;;;;;;;;;;4994242;28;20027;-72
2023/07/10 19:27:26;;;;;;;18.90;5.20;;;;;;;;;;4994400;28;20027;-73
2023/07/10 19:29:53;;;;;;;21.23;5.63;;;;;;;;;;4993960;28;20036;-73
2023/07/10 19:32:23;;;;;;;27.75;5.90;;;;;;;;;;4994103;28;20034;-72
2023/07/10 19:34:49;;;;;;;30.90;5.65;;;;;;;;;;4993567;28;20022;-73
2023/07/10 19:37:15;;;;;;;28.88;5.50;;;;;;;;;;4993737;28;20034;-73
2023/07/10 19:39:43;;;;;;;23.13;5.90;;;;;;;;;;4993840;28;20018;-72
2023/07/10 19:42:09;;;;;;;20.95;6.03;;;;;;;;;;4993789;28;20022;-72
2023/07/10 19:44:57;;;;;;;20.75;4.95;;;;;;;;;;4993587;28;20060;-72
2023/07/10 19:47:24;;;;;;;24.42;5.22;;;;;;;;;;4993943;28;20068;-72
2023/07/10 19:49:50;;;;;;;15.65;5.32;;;;;;;;;;4993321;28;20040;-72
2023/07/10 19:52:17;;;;;;;24.75;4.90;;;;;;;;;;4992545;28;20382;-72
2023/07/10 19:54:44;;;;;;;26.33;6.43;;;;;;;;;;4993476;28;20034;-72
2023/07/10 19:57:18;;;;;;;14.73;5.32;;;;;;;;;;4993653;28;20483;-72
2023/07/10 19:59:44;;;;;;;24.23;5.22;;;;;;;;;;4993658;28;20026;-72
2023/07/10 20:02:14;;;;;;;16.33;5.53;;;;;;;;;;4993332;28;20034;-72
2023/07/10 20:04:41;;;;;;;;;;;;;;;;;;4993597;28;20034;-72
2023/07/10 20:07:08;;;;;;;19.60;5.63;;;;;;;;;;4993380;28;19912;-72
2023/07/10 20:09:35;;;;;;;19.95;5.03;;;;;;;;;;4993218;28;20049;-72
2023/07/10 20:12:02;;;;;;;21.90;5.28;;;;;;;;;;4993170;28;20057;-72
2023/07/10 20:14:29;;;;;;;23.58;5.03;;;;;;;;;;4993293;28;20042;-72
2023/07/10 20:16:55;;;;;;;22.02;5.18;;;;;;;;;;4993454;28;20030;-72
2023/07/10 20:19:22;;;;;;;17.95;5.22;;;;;;;;;;4992546;28;20428;-73
2023/07/10 20:21:50;;;;;;;29.10;5.78;;;;;;;;;;4993156;28;20026;-72
2023/07/10 20:24:17;;;;;;;22.25;5.72;;;;;;;;;;4992889;28;20018;-72
2023/07/10 20:26:44;;;;;;;17.55;4.75;;;;;;;;;;4993384;28;20036;-72
2023/07/10 20:29:17;;;;;;;19.33;5.45;;;;;;;;;;4992932;28;20034;-72
2023/07/10 20:31:44;;;;;;;21.15;5.07;;;;;;;;;;4993343;28;20037;-72
2023/07/10 20:34:11;;;;;;;18.85;5.20;;;;;;;;;;4992696;28;20084;-72
2023/07/10 20:36:38;;;;;;;19.02;5.57;;;;;;;;;;4992935;28;20483;-72
2023/07/10 20:39:09;;;;;;;21.38;5.20;;;;;;;;;;4993029;28;20038;-72
2023/07/10 20:41:37;;;;;;;22.20;5.75;;;;;;;;;;4993078;28;20011;-72
2023/07/10 20:44:12;;;;;;;28.48;5.55;;;;;;;;;;4992686;28;20023;-72
2023/07/10 20:46:38;;;;;;;18.17;5.82;;;;;;;;;;4992672;28;20499;-72
2023/07/10 20:49:11;;;;;;;12.55;4.95;;;;;;;;;;4991159;28;20049;-72
2023/07/10 20:51:38;;;;;;;16.50;5.40;;;;;;;;;;4991530;28;20505;-72
2023/07/10 20:54:09;;;;;;;16.70;5.07;;;;;;;;;;4992611;28;20022;-72
2023/07/10 20:56:36;;;;;;;20.02;5.70;;;;;;;;;;4992603;28;20053;-72
2023/07/10 20:59:05;;;;;;;21.23;5.78;;;;;;;;;;4992946;28;20022;-72
2023/07/10 21:01:32;;;;;;;21.63;5.65;;;;;;;;;;4992572;28;20053;-72